sensor_id;sensor_type;location;lat;lon;timestamp;temperature;humidity
2300;DHT22;1158;48.750;9.078;2022-12-26T00:01:57;10.20;99.90
2300;DHT22;1158;48.750;9.078;2022-12-26T00:04:25;10.30;99.90
2300;DHT22;1158;48.750;9.078;2022-12-26T00:06:51;10.20;99.90
2300;DHT22;1158;48.750;9.078;2022-12-26T00:09:18;10.10;99.90
2300;DHT22;1158;48.750;9.078;2022-12-26T00:11:47;10.10;99.90
2300;DHT22;1158;48.750;9.078;2022-12-26T00:14:15;10.10;99.90
2300;DHT22;1158;48.750;9.078;2022-12-26T00:16:43;10.10;99.90
2300;DHT22;1158;48.750;9.078;2022-12-26T00:19:10;10.10;99.90
2300;DHT22;1158;48.750;9.078;2022-12-26T00:21:37;10.10;99.90
2300;DHT22;1158;48.750;9.078;2022-12-26T00:24:04;10.20;99.90
2300;DHT22;1158;48.750;9.078;2022-12-26T00:26:32;10.30;99.90
2300;DHT22;1158;48.750;9.078;2022-12-26T00:29:01;10.20;99.90
2300;DHT22;1158;48.750;9.078;2022-12-26T00:31:29;10.20;99.90
2300;DHT22;1158;48.750;9.078;2022-12-26T00:33:57;10.30;99.90
2300;DHT22;1158;48.750;9.078;2022-12-26T00:36:25;10.20;99.90
2300;DHT22;1158;48.750;9.078;2022-12-26T00:38:54;10.20;99.90
2300;DHT22;1158;48.750;9.078;2022-12-26T00:41:21;10.20;99.90
2300;DHT22;1158;48.750;9.078;2022-12-26T00:43:47;10.20;99.90
2300;DHT22;1158;48.750;9.078;2022-12-26T00:46:16;10.20;99.90
2300;DHT22;1158;48.750;9.078;2022-12-26T00:48:43;10.10;99.90
2300;DHT22;1158;48.750;9.078;2022-12-26T00:51:10;10.00;99.90
2300;DHT22;1158;48.750;9.078;2022-12-26T00:53:37;9.90;99.90
2300;DHT22;1158;48.750;9.078;2022-12-26T00:56:04;9.90;99.90
2300;DHT22;1158;48.750;9.078;2022-12-26T00:58:31;9.90;99.90
2300;DHT22;1158;48.750;9.078;2022-12-26T01:01:05;9.80;99.90
2300;DHT22;1158;48.750;9.078;2022-12-26T01:03:34;9.80;99.90
2300;DHT22;1158;48.750;9.078;2022-12-26T01:06:02;9.80;99.90
2300;DHT22;1158;48.750;9.078;2022-12-26T01:08:29;9.80;99.90
2300;DHT22;1158;48.750;9.078;2022-12-26T01:10:56;9.70;99.90
2300;DHT22;1158;48.750;9.078;2022-12-26T01:13:23;9.80;99.90
2300;DHT22;1158;48.750;9.078;2022-12-26T01:15:51;9.80;99.90
2300;DHT22;1158;48.750;9.078;2022-12-26T01:18:19;9.70;99.90
2300;DHT22;1158;48.750;9.078;2022-12-26T01:20:48;9.70;99.90
2300;DHT22;1158;48.750;9.078;2022-12-26T01:23:15;9.70;99.90
2300;DHT22;1158;48.750;9.078;2022-12-26T01:25:42;9.60;99.90
2300;DHT22;1158;48.750;9.078;2022-12-26T01:28:09;9.60;99.90
2300;DHT22;1158;48.750;9.078;2022-12-26T01:30:36;9.60;99.90
2300;DHT22;1158;48.750;9.078;2022-12-26T01:33:03;9.60;99.90
2300;DHT22;1158;48.750;9.078;2022-12-26T01:35:30;9.70;99.90
2300;DHT22;1158;48.750;9.078;2022-12-26T01:37:58;9.60;99.90
2300;DHT22;1158;48.750;9.078;2022-12-26T01:40:24;9.60;99.90
2300;DHT22;1158;48.750;9.078;2022-12-26T01:42:51;9.60;99.90
2300;DHT22;1158;48.750;9.078;2022-12-26T01:45:24;9.60;99.90
2300;DHT22;1158;48.750;9.078;2022-12-26T01:47:56;9.60;99.90
2300;DHT22;1158;48.750;9.078;2022-12-26T01:50:29;9.60;99.90
2300;DHT22;1158;48.750;9.078;2022-12-26T01:53:01;9.60;99.90
2300;DHT22;1158;48.750;9.078;2022-12-26T01:55:30;9.50;99.90
2300;DHT22;1158;48.750;9.078;2022-12-26T01:58:00;9.40;99.90
2300;DHT22;1158;48.750;9.078;2022-12-26T02:00:28;9.40;99.90
2300;DHT22;1158;48.750;9.078;2022-12-26T02:02:55;9.40;99.90
2300;DHT22;1158;48.750;9.078;2022-12-26T02:05:41;9.60;99.90
2300;DHT22;1158;48.750;9.078;2022-12-26T02:08:13;9.60;99.90
2300;DHT22;1158;48.750;9.078;2022-12-26T02:10:46;9.70;99.90
2300;DHT22;1158;48.750;9.078;2022-12-26T02:13:14;9.80;99.90
2300;DHT22;1158;48.750;9.078;2022-12-26T02:15:42;9.90;99.90
2300;DHT22;1158;48.750;9.078;2022-12-26T02:18:09;9.90;99.90
2300;DHT22;1158;48.750;9.078;2022-12-26T02:20:42;9.90;99.90
2300;DHT22;1158;48.750;9.078;2022-12-26T02:26:33;9.90;99.90
2300;DHT22;1158;48.750;9.078;2022-12-26T02:29:32;9.90;99.90
2300;DHT22;1158;48.750;9.078;2022-12-26T02:32:08;10.00;99.90
2300;DHT22;1158;48.750;9.078;2022-12-26T02:34:48;10.00;99.90
2300;DHT22;1158;48.750;9.078;2022-12-26T02:37:28;10.10;99.90
2300;DHT22;1158;48.750;9.078;2022-12-26T02:40:10;10.10;99.90
2300;DHT22;1158;48.750;9.078;2022-12-26T02:42:50;10.10;99.90
2300;DHT22;1158;48.750;9.078;2022-12-26T02:45:24;10.10;99.90
2300;DHT22;1158;48.750;9.078;2022-12-26T02:48:32;10.20;99.90
2300;DHT22;1158;48.750;9.078;2022-12-26T02:51:11;10.20;99.90
2300;DHT22;1158;48.750;9.078;2022-12-26T02:54:04;10.20;99.90
2300;DHT22;1158;48.750;9.078;2022-12-26T02:56:52;10.30;99.90
2300;DHT22;1158;48.750;9.078;2022-12-26T02:59:47;10.30;99.90
2300;DHT22;1158;48.750;9.078;2022-12-26T03:02:37;10.20;99.90
2300;DHT22;1158;48.750;9.078;2022-12-26T03:05:28;10.20;99.90
2300;DHT22;1158;48.750;9.078;2022-12-26T03:08:19;10.20;99.90
2300;DHT22;1158;48.750;9.078;2022-12-26T03:11:04;10.10;99.90
2300;DHT22;1158;48.750;9.078;2022-12-26T03:13:50;10.10;99.90
2300;DHT22;1158;48.750;9.078;2022-12-26T03:16:18;10.00;99.90
2300;DHT22;1158;48.750;9.078;2022-12-26T03:19:06;9.90;99.90
2300;DHT22;1158;48.750;9.078;2022-12-26T03:21:39;9.90;99.90
2300;DHT22;1158;48.750;9.078;2022-12-26T03:24:09;9.80;99.90
2300;DHT22;1158;48.750;9.078;2022-12-26T03:26:39;9.90;99.90
2300;DHT22;1158;48.750;9.078;2022-12-26T03:29:10;9.90;99.90
2300;DHT22;1158;48.750;9.078;2022-12-26T03:31:54;9.80;99.90
2300;DHT22;1158;48.750;9.078;2022-12-26T03:34:22;9.80;99.90
2300;DHT22;1158;48.750;9.078;2022-12-26T03:36:59;9.80;99.90
2300;DHT22;1158;48.750;9.078;2022-12-26T03:39:34;9.80;99.90
2300;DHT22;1158;48.750;9.078;2022-12-26T03:42:22;9.80;99.90
2300;DHT22;1158;48.750;9.078;2022-12-26T03:45:13;9.80;99.90
2300;DHT22;1158;48.750;9.078;2022-12-26T03:48:04;9.80;99.90
2300;DHT22;1158;48.750;9.078;2022-12-26T03:50:55;9.80;99.90
2300;DHT22;1158;48.750;9.078;2022-12-26T03:53:47;9.80;99.90
2300;DHT22;1158;48.750;9.078;2022-12-26T03:56:37;9.80;99.90
2300;DHT22;1158;48.750;9.078;2022-12-26T03:59:41;9.80;99.90
2300;DHT22;1158;48.750;9.078;2022-12-26T04:02:33;9.80;99.90
2300;DHT22;1158;48.750;9.078;2022-12-26T04:05:19;9.80;99.90
2300;DHT22;1158;48.750;9.078;2022-12-26T04:08:09;9.70;99.90
2300;DHT22;1158;48.750;9.078;2022-12-26T04:10:58;9.80;99.90
2300;DHT22;1158;48.750;9.078;2022-12-26T04:13:52;9.80;99.90
2300;DHT22;1158;48.750;9.078;2022-12-26T04:16:40;9.80;99.90
2300;DHT22;1158;48.750;9.078;2022-12-26T04:22:22;9.90;99.90
2300;DHT22;1158;48.750;9.078;2022-12-26T04:25:12;10.10;99.90
2300;DHT22;1158;48.750;9.078;2022-12-26T04:27:58;10.10;99.90
2300;DHT22;1158;48.750;9.078;2022-12-26T04:30:51;10.20;99.90
2300;DHT22;1158;48.750;9.078;2022-12-26T04:33:42;10.20;99.90
2300;DHT22;1158;48.750;9.078;2022-12-26T04:36:33;10.30;99.90
2300;DHT22;1158;48.750;9.078;2022-12-26T04:39:22;10.20;99.90
2300;DHT22;1158;48.750;9.078;2022-12-26T04:42:09;10.30;99.90
2300;DHT22;1158;48.750;9.078;2022-12-26T04:44:56;10.30;99.90
2300;DHT22;1158;48.750;9.078;2022-12-26T04:47:23;10.30;99.90
2300;DHT22;1158;48.750;9.078;2022-12-26T04:49:50;10.30;99.90
2300;DHT22;1158;48.750;9.078;2022-12-26T04:52:34;10.20;99.90
2300;DHT22;1158;48.750;9.078;2022-12-26T04:55:18;10.10;99.90
2300;DHT22;1158;48.750;9.078;2022-12-26T04:57:45;10.10;99.90
2300;DHT22;1158;48.750;9.078;2022-12-26T05:00:14;10.10;99.90
2300;DHT22;1158;48.750;9.078;2022-12-26T05:02:41;10.00;99.90
2300;DHT22;1158;48.750;9.078;2022-12-26T05:05:25;10.00;99.90
2300;DHT22;1158;48.750;9.078;2022-12-26T05:08:19;10.00;99.90
2300;DHT22;1158;48.750;9.078;2022-12-26T05:11:05;10.10;99.90
2300;DHT22;1158;48.750;9.078;2022-12-26T05:13:32;10.10;99.90
2300;DHT22;1158;48.750;9.078;2022-12-26T05:16:00;10.00;99.90
2300;DHT22;1158;48.750;9.078;2022-12-26T05:18:44;10.00;99.90
2300;DHT22;1158;48.750;9.078;2022-12-26T05:21:28;10.00;99.90
2300;DHT22;1158;48.750;9.078;2022-12-26T05:24:12;10.00;99.90
2300;DHT22;1158;48.750;9.078;2022-12-26T05:26:56;9.90;99.90
2300;DHT22;1158;48.750;9.078;2022-12-26T05:29:40;9.90;99.90
2300;DHT22;1158;48.750;9.078;2022-12-26T05:32:08;9.90;99.90
2300;DHT22;1158;48.750;9.078;2022-12-26T05:34:35;10.00;99.90
2300;DHT22;1158;48.750;9.078;2022-12-26T05:37:01;10.00;99.90
2300;DHT22;1158;48.750;9.078;2022-12-26T05:39:28;10.00;99.90
2300;DHT22;1158;48.750;9.078;2022-12-26T05:41:54;10.00;99.90
2300;DHT22;1158;48.750;9.078;2022-12-26T05:44:21;10.00;99.90
2300;DHT22;1158;48.750;9.078;2022-12-26T05:46:48;10.10;99.90
2300;DHT22;1158;48.750;9.078;2022-12-26T05:49:16;10.10;99.90
2300;DHT22;1158;48.750;9.078;2022-12-26T05:51:42;10.10;99.90
2300;DHT22;1158;48.750;9.078;2022-12-26T05:54:09;10.10;99.90
2300;DHT22;1158;48.750;9.078;2022-12-26T05:56:36;10.10;99.90
2300;DHT22;1158;48.750;9.078;2022-12-26T05:59:02;10.20;99.90
2300;DHT22;1158;48.750;9.078;2022-12-26T06:01:29;10.20;99.90
2300;DHT22;1158;48.750;9.078;2022-12-26T06:03:57;10.30;99.90
2300;DHT22;1158;48.750;9.078;2022-12-26T06:06:27;10.30;99.90
2300;DHT22;1158;48.750;9.078;2022-12-26T06:08:55;10.30;99.90
2300;DHT22;1158;48.750;9.078;2022-12-26T06:11:22;10.20;99.90
2300;DHT22;1158;48.750;9.078;2022-12-26T06:13:50;10.30;99.90
2300;DHT22;1158;48.750;9.078;2022-12-26T06:16:18;10.30;99.90
2300;DHT22;1158;48.750;9.078;2022-12-26T06:18:45;10.30;99.90
2300;DHT22;1158;48.750;9.078;2022-12-26T06:21:14;10.30;99.90
2300;DHT22;1158;48.750;9.078;2022-12-26T06:23:42;10.20;99.90
2300;DHT22;1158;48.750;9.078;2022-12-26T06:26:10;10.20;99.90
2300;DHT22;1158;48.750;9.078;2022-12-26T06:28:37;10.20;99.90
2300;DHT22;1158;48.750;9.078;2022-12-26T06:31:06;10.20;99.90
2300;DHT22;1158;48.750;9.078;2022-12-26T06:33:33;10.30;99.90
2300;DHT22;1158;48.750;9.078;2022-12-26T06:36:04;10.30;99.90
2300;DHT22;1158;48.750;9.078;2022-12-26T06:38:31;10.30;99.90
2300;DHT22;1158;48.750;9.078;2022-12-26T06:40:59;10.30;99.90
2300;DHT22;1158;48.750;9.078;2022-12-26T06:43:26;10.30;99.90
2300;DHT22;1158;48.750;9.078;2022-12-26T06:45:54;10.20;99.90
2300;DHT22;1158;48.750;9.078;2022-12-26T06:48:21;10.30;99.90
2300;DHT22;1158;48.750;9.078;2022-12-26T06:50:48;10.20;99.90
2300;DHT22;1158;48.750;9.078;2022-12-26T06:53:15;10.30;99.90
2300;DHT22;1158;48.750;9.078;2022-12-26T06:55:41;10.30;99.90
2300;DHT22;1158;48.750;9.078;2022-12-26T06:58:09;10.30;99.90
2300;DHT22;1158;48.750;9.078;2022-12-26T07:00:36;10.40;99.90
2300;DHT22;1158;48.750;9.078;2022-12-26T07:03:03;10.40;99.90
2300;DHT22;1158;48.750;9.078;2022-12-26T07:05:30;10.40;99.90
2300;DHT22;1158;48.750;9.078;2022-12-26T07:07:56;10.40;99.90
2300;DHT22;1158;48.750;9.078;2022-12-26T07:10:23;10.30;99.90
2300;DHT22;1158;48.750;9.078;2022-12-26T07:12:50;10.30;99.90
2300;DHT22;1158;48.750;9.078;2022-12-26T07:15:18;10.30;99.90
2300;DHT22;1158;48.750;9.078;2022-12-26T07:17:44;10.30;99.90
2300;DHT22;1158;48.750;9.078;2022-12-26T07:20:11;10.40;99.90
2300;DHT22;1158;48.750;9.078;2022-12-26T07:22:38;10.40;99.90
2300;DHT22;1158;48.750;9.078;2022-12-26T07:25:05;10.40;99.90
2300;DHT22;1158;48.750;9.078;2022-12-26T07:27:32;10.40;99.90
2300;DHT22;1158;48.750;9.078;2022-12-26T07:29:59;10.30;99.90
2300;DHT22;1158;48.750;9.078;2022-12-26T07:32:27;10.30;99.90
2300;DHT22;1158;48.750;9.078;2022-12-26T07:34:54;10.30;99.90
2300;DHT22;1158;48.750;9.078;2022-12-26T07:37:20;10.30;99.90
2300;DHT22;1158;48.750;9.078;2022-12-26T07:39:47;10.30;99.90
2300;DHT22;1158;48.750;9.078;2022-12-26T07:42:14;10.30;99.90
2300;DHT22;1158;48.750;9.078;2022-12-26T07:44:40;10.30;99.90
2300;DHT22;1158;48.750;9.078;2022-12-26T07:47:07;10.40;99.90
2300;DHT22;1158;48.750;9.078;2022-12-26T07:49:35;10.40;99.90
2300;DHT22;1158;48.750;9.078;2022-12-26T07:52:02;10.30;99.90
2300;DHT22;1158;48.750;9.078;2022-12-26T07:54:29;10.30;99.90
2300;DHT22;1158;48.750;9.078;2022-12-26T07:56:56;10.30;99.90
2300;DHT22;1158;48.750;9.078;2022-12-26T07:59:23;10.30;99.90
2300;DHT22;1158;48.750;9.078;2022-12-26T08:01:50;10.20;99.90
2300;DHT22;1158;48.750;9.078;2022-12-26T08:04:16;10.10;99.90
2300;DHT22;1158;48.750;9.078;2022-12-26T08:06:46;10.00;99.90
2300;DHT22;1158;48.750;9.078;2022-12-26T08:09:13;9.90;99.90
2300;DHT22;1158;48.750;9.078;2022-12-26T08:11:40;9.80;99.90
2300;DHT22;1158;48.750;9.078;2022-12-26T08:14:09;9.70;99.90
2300;DHT22;1158;48.750;9.078;2022-12-26T08:16:36;9.70;99.90
2300;DHT22;1158;48.750;9.078;2022-12-26T08:19:02;9.60;99.90
2300;DHT22;1158;48.750;9.078;2022-12-26T08:21:29;9.60;99.90
2300;DHT22;1158;48.750;9.078;2022-12-26T08:23:58;9.60;99.90
2300;DHT22;1158;48.750;9.078;2022-12-26T08:26:24;9.60;99.90
2300;DHT22;1158;48.750;9.078;2022-12-26T08:28:51;9.50;99.90
2300;DHT22;1158;48.750;9.078;2022-12-26T08:31:18;9.60;99.90
2300;DHT22;1158;48.750;9.078;2022-12-26T08:33:45;9.60;99.90
2300;DHT22;1158;48.750;9.078;2022-12-26T08:36:13;9.60;99.90
2300;DHT22;1158;48.750;9.078;2022-12-26T08:38:41;9.70;99.90
2300;DHT22;1158;48.750;9.078;2022-12-26T08:41:10;9.70;99.90
2300;DHT22;1158;48.750;9.078;2022-12-26T08:43:37;9.70;99.90
2300;DHT22;1158;48.750;9.078;2022-12-26T08:46:07;9.70;99.90
2300;DHT22;1158;48.750;9.078;2022-12-26T08:48:34;9.70;99.90
2300;DHT22;1158;48.750;9.078;2022-12-26T08:51:02;9.70;99.90
2300;DHT22;1158;48.750;9.078;2022-12-26T08:53:30;9.60;99.90
2300;DHT22;1158;48.750;9.078;2022-12-26T08:56:00;9.60;99.90
2300;DHT22;1158;48.750;9.078;2022-12-26T08:58:28;9.60;99.90
2300;DHT22;1158;48.750;9.078;2022-12-26T09:00:55;9.60;99.90
2300;DHT22;1158;48.750;9.078;2022-12-26T09:03:21;9.60;99.90
2300;DHT22;1158;48.750;9.078;2022-12-26T09:05:48;9.60;99.90
2300;DHT22;1158;48.750;9.078;2022-12-26T09:08:15;9.60;99.90
2300;DHT22;1158;48.750;9.078;2022-12-26T09:10:41;9.60;99.90
2300;DHT22;1158;48.750;9.078;2022-12-26T09:13:08;9.50;99.90
2300;DHT22;1158;48.750;9.078;2022-12-26T09:15:36;9.50;99.90
2300;DHT22;1158;48.750;9.078;2022-12-26T09:18:03;9.40;99.90
2300;DHT22;1158;48.750;9.078;2022-12-26T09:20:31;9.30;99.90
2300;DHT22;1158;48.750;9.078;2022-12-26T09:22:58;9.20;99.90
2300;DHT22;1158;48.750;9.078;2022-12-26T09:25:25;9.20;99.90
2300;DHT22;1158;48.750;9.078;2022-12-26T09:27:52;9.20;99.90
2300;DHT22;1158;48.750;9.078;2022-12-26T09:30:20;9.10;99.90
2300;DHT22;1158;48.750;9.078;2022-12-26T09:32:48;9.10;99.90
2300;DHT22;1158;48.750;9.078;2022-12-26T09:35:14;9.10;99.90
2300;DHT22;1158;48.750;9.078;2022-12-26T09:37:41;9.00;99.90
2300;DHT22;1158;48.750;9.078;2022-12-26T09:40:21;9.00;99.90
2300;DHT22;1158;48.750;9.078;2022-12-26T09:42:58;9.00;99.90
2300;DHT22;1158;48.750;9.078;2022-12-26T09:48:14;9.00;99.90
2300;DHT22;1158;48.750;9.078;2022-12-26T09:50:47;8.90;99.90
2300;DHT22;1158;48.750;9.078;2022-12-26T09:53:16;8.90;99.90
2300;DHT22;1158;48.750;9.078;2022-12-26T09:55:48;8.90;99.90
2300;DHT22;1158;48.750;9.078;2022-12-26T09:58:23;8.80;99.90
2300;DHT22;1158;48.750;9.078;2022-12-26T10:00:54;8.80;99.90
2300;DHT22;1158;48.750;9.078;2022-12-26T10:03:23;8.80;99.90
2300;DHT22;1158;48.750;9.078;2022-12-26T10:06:04;8.80;99.90
2300;DHT22;1158;48.750;9.078;2022-12-26T10:08:51;8.70;99.90
2300;DHT22;1158;48.750;9.078;2022-12-26T10:11:26;8.70;99.90
2300;DHT22;1158;48.750;9.078;2022-12-26T10:13:58;8.70;99.90
2300;DHT22;1158;48.750;9.078;2022-12-26T10:16:39;8.70;99.90
2300;DHT22;1158;48.750;9.078;2022-12-26T10:19:19;8.70;99.90
2300;DHT22;1158;48.750;9.078;2022-12-26T10:22:01;8.70;99.90
2300;DHT22;1158;48.750;9.078;2022-12-26T10:24:32;8.70;99.90
2300;DHT22;1158;48.750;9.078;2022-12-26T10:27:04;8.70;99.90
2300;DHT22;1158;48.750;9.078;2022-12-26T10:29:36;8.60;99.90
2300;DHT22;1158;48.750;9.078;2022-12-26T10:32:07;8.60;99.90
2300;DHT22;1158;48.750;9.078;2022-12-26T10:34:40;9.20;99.90
2300;DHT22;1158;48.750;9.078;2022-12-26T10:37:14;9.10;99.90
2300;DHT22;1158;48.750;9.078;2022-12-26T10:39:46;9.00;99.90
2300;DHT22;1158;48.750;9.078;2022-12-26T10:42:20;8.90;99.90
2300;DHT22;1158;48.750;9.078;2022-12-26T10:44:48;8.90;99.90
2300;DHT22;1158;48.750;9.078;2022-12-26T10:47:26;8.90;99.90
2300;DHT22;1158;48.750;9.078;2022-12-26T10:49:55;8.90;99.90
2300;DHT22;1158;48.750;9.078;2022-12-26T10:52:29;8.90;99.90
2300;DHT22;1158;48.750;9.078;2022-12-26T10:54:58;9.00;99.90
2300;DHT22;1158;48.750;9.078;2022-12-26T10:57:27;9.00;99.90
2300;DHT22;1158;48.750;9.078;2022-12-26T10:59:55;9.00;99.90
2300;DHT22;1158;48.750;9.078;2022-12-26T11:02:24;9.00;99.90
2300;DHT22;1158;48.750;9.078;2022-12-26T11:05:05;9.00;99.90
2300;DHT22;1158;48.750;9.078;2022-12-26T11:07:34;9.00;99.90
2300;DHT22;1158;48.750;9.078;2022-12-26T11:10:02;9.00;99.90
2300;DHT22;1158;48.750;9.078;2022-12-26T11:12:38;9.00;99.90
2300;DHT22;1158;48.750;9.078;2022-12-26T11:15:17;9.00;99.90
2300;DHT22;1158;48.750;9.078;2022-12-26T11:17:46;9.00;99.90
2300;DHT22;1158;48.750;9.078;2022-12-26T11:20:25;9.00;99.90
2300;DHT22;1158;48.750;9.078;2022-12-26T11:22:53;9.00;99.90
2300;DHT22;1158;48.750;9.078;2022-12-26T11:25:22;9.00;99.90
2300;DHT22;1158;48.750;9.078;2022-12-26T11:27:51;9.10;99.90
2300;DHT22;1158;48.750;9.078;2022-12-26T11:30:22;9.00;99.90
2300;DHT22;1158;48.750;9.078;2022-12-26T11:33:00;9.00;99.90
2300;DHT22;1158;48.750;9.078;2022-12-26T11:35:30;9.00;99.90
2300;DHT22;1158;48.750;9.078;2022-12-26T11:38:02;9.00;99.90
2300;DHT22;1158;48.750;9.078;2022-12-26T11:40:33;8.90;99.90
2300;DHT22;1158;48.750;9.078;2022-12-26T11:43:03;9.00;99.90
2300;DHT22;1158;48.750;9.078;2022-12-26T11:45:35;8.90;99.90
2300;DHT22;1158;48.750;9.078;2022-12-26T11:48:15;9.00;99.90
2300;DHT22;1158;48.750;9.078;2022-12-26T11:50:45;9.00;99.90
2300;DHT22;1158;48.750;9.078;2022-12-26T11:53:15;8.90;99.90
2300;DHT22;1158;48.750;9.078;2022-12-26T11:55:42;8.90;99.90
2300;DHT22;1158;48.750;9.078;2022-12-26T11:58:17;8.90;99.90
2300;DHT22;1158;48.750;9.078;2022-12-26T12:01:04;8.90;99.90
2300;DHT22;1158;48.750;9.078;2022-12-26T12:03:34;9.00;99.90
2300;DHT22;1158;48.750;9.078;2022-12-26T12:06:14;9.00;99.90
2300;DHT22;1158;48.750;9.078;2022-12-26T12:08:50;9.10;99.90
2300;DHT22;1158;48.750;9.078;2022-12-26T12:11:29;9.20;99.90
2300;DHT22;1158;48.750;9.078;2022-12-26T12:14:26;9.20;99.90
2300;DHT22;1158;48.750;9.078;2022-12-26T12:17:00;9.30;99.90
2300;DHT22;1158;48.750;9.078;2022-12-26T12:19:50;9.30;99.90
2300;DHT22;1158;48.750;9.078;2022-12-26T12:22:41;9.30;99.90
2300;DHT22;1158;48.750;9.078;2022-12-26T12:25:30;9.30;99.90
2300;DHT22;1158;48.750;9.078;2022-12-26T12:28:06;9.40;99.90
2300;DHT22;1158;48.750;9.078;2022-12-26T12:30:39;9.40;99.90
2300;DHT22;1158;48.750;9.078;2022-12-26T12:33:31;9.50;99.90
2300;DHT22;1158;48.750;9.078;2022-12-26T12:36:08;9.40;99.90
2300;DHT22;1158;48.750;9.078;2022-12-26T12:38:43;9.50;99.90
2300;DHT22;1158;48.750;9.078;2022-12-26T12:41:27;9.50;99.90
2300;DHT22;1158;48.750;9.078;2022-12-26T12:44:02;9.50;99.90
2300;DHT22;1158;48.750;9.078;2022-12-26T12:46:37;9.50;99.90
2300;DHT22;1158;48.750;9.078;2022-12-26T12:49:25;9.50;99.90
2300;DHT22;1158;48.750;9.078;2022-12-26T12:52:04;9.60;99.90
2300;DHT22;1158;48.750;9.078;2022-12-26T12:54:46;9.60;99.90
2300;DHT22;1158;48.750;9.078;2022-12-26T12:57:22;9.60;99.90
2300;DHT22;1158;48.750;9.078;2022-12-26T13:00:00;9.70;99.90
2300;DHT22;1158;48.750;9.078;2022-12-26T13:02:34;9.70;99.90
2300;DHT22;1158;48.750;9.078;2022-12-26T13:05:17;9.70;99.90
2300;DHT22;1158;48.750;9.078;2022-12-26T13:07:48;9.70;99.90
2300;DHT22;1158;48.750;9.078;2022-12-26T13:10:20;9.70;99.90
2300;DHT22;1158;48.750;9.078;2022-12-26T13:12:48;9.70;99.90
2300;DHT22;1158;48.750;9.078;2022-12-26T13:15:26;9.60;99.90
2300;DHT22;1158;48.750;9.078;2022-12-26T13:17:57;9.60;99.90
2300;DHT22;1158;48.750;9.078;2022-12-26T13:20:29;9.60;99.90
2300;DHT22;1158;48.750;9.078;2022-12-26T13:23:01;9.60;99.90
2300;DHT22;1158;48.750;9.078;2022-12-26T13:26:01;9.60;99.90
2300;DHT22;1158;48.750;9.078;2022-12-26T13:28:33;9.60;99.90
2300;DHT22;1158;48.750;9.078;2022-12-26T13:31:02;9.60;99.90
2300;DHT22;1158;48.750;9.078;2022-12-26T13:33:29;9.60;99.90
2300;DHT22;1158;48.750;9.078;2022-12-26T13:35:58;9.50;99.90
2300;DHT22;1158;48.750;9.078;2022-12-26T13:41:32;9.50;99.90
2300;DHT22;1158;48.750;9.078;2022-12-26T13:44:25;9.50;99.90
2300;DHT22;1158;48.750;9.078;2022-12-26T13:46:55;9.50;99.90
2300;DHT22;1158;48.750;9.078;2022-12-26T13:49:26;9.60;99.90
2300;DHT22;1158;48.750;9.078;2022-12-26T13:51:56;9.60;99.90
2300;DHT22;1158;48.750;9.078;2022-12-26T13:54:25;9.50;99.90
2300;DHT22;1158;48.750;9.078;2022-12-26T14:00:05;9.50;99.90
2300;DHT22;1158;48.750;9.078;2022-12-26T14:03:08;9.50;99.90
2300;DHT22;1158;48.750;9.078;2022-12-26T14:05:43;9.50;99.90
2300;DHT22;1158;48.750;9.078;2022-12-26T14:08:22;9.40;99.90
2300;DHT22;1158;48.750;9.078;2022-12-26T14:10:57;9.40;99.90
2300;DHT22;1158;48.750;9.078;2022-12-26T14:13:48;9.40;99.90
2300;DHT22;1158;48.750;9.078;2022-12-26T14:16:22;9.30;99.90
2300;DHT22;1158;48.750;9.078;2022-12-26T14:18:59;9.40;99.90
2300;DHT22;1158;48.750;9.078;2022-12-26T14:21:35;9.40;99.90
2300;DHT22;1158;48.750;9.078;2022-12-26T14:24:17;9.30;99.90
2300;DHT22;1158;48.750;9.078;2022-12-26T14:26:53;9.40;99.90
2300;DHT22;1158;48.750;9.078;2022-12-26T14:29:28;9.40;99.90
2300;DHT22;1158;48.750;9.078;2022-12-26T14:32:09;9.40;99.90
2300;DHT22;1158;48.750;9.078;2022-12-26T14:34:48;9.40;99.90
2300;DHT22;1158;48.750;9.078;2022-12-26T14:37:23;9.30;99.90
2300;DHT22;1158;48.750;9.078;2022-12-26T14:40:04;9.30;99.90
2300;DHT22;1158;48.750;9.078;2022-12-26T14:43:01;9.30;99.90
2300;DHT22;1158;48.750;9.078;2022-12-26T14:45:43;9.30;99.90
2300;DHT22;1158;48.750;9.078;2022-12-26T14:48:39;9.30;99.90
2300;DHT22;1158;48.750;9.078;2022-12-26T14:51:36;9.30;99.90
2300;DHT22;1158;48.750;9.078;2022-12-26T15:00:29;9.20;99.90
2300;DHT22;1158;48.750;9.078;2022-12-26T15:12:11;9.10;99.90
2300;DHT22;1158;48.750;9.078;2022-12-26T15:15:13;9.10;99.90
2300;DHT22;1158;48.750;9.078;2022-12-26T15:17:52;9.10;99.90
2300;DHT22;1158;48.750;9.078;2022-12-26T15:20:49;9.10;99.90
2300;DHT22;1158;48.750;9.078;2022-12-26T15:23:49;9.10;99.90
2300;DHT22;1158;48.750;9.078;2022-12-26T15:26:54;9.00;99.90
2300;DHT22;1158;48.750;9.078;2022-12-26T15:32:32;8.90;99.90
2300;DHT22;1158;48.750;9.078;2022-12-26T15:35:07;8.90;99.90
2300;DHT22;1158;48.750;9.078;2022-12-26T15:38:10;9.00;99.90
2300;DHT22;1158;48.750;9.078;2022-12-26T15:40:43;9.00;99.90
2300;DHT22;1158;48.750;9.078;2022-12-26T15:43:34;9.00;99.90
2300;DHT22;1158;48.750;9.078;2022-12-26T15:46:09;9.00;99.90
2300;DHT22;1158;48.750;9.078;2022-12-26T15:48:51;9.00;99.90
2300;DHT22;1158;48.750;9.078;2022-12-26T15:51:31;9.00;99.90
2300;DHT22;1158;48.750;9.078;2022-12-26T15:54:12;9.00;99.90
2300;DHT22;1158;48.750;9.078;2022-12-26T15:56:50;9.00;99.90
2300;DHT22;1158;48.750;9.078;2022-12-26T15:59:39;9.00;99.90
2300;DHT22;1158;48.750;9.078;2022-12-26T16:02:12;9.00;99.90
2300;DHT22;1158;48.750;9.078;2022-12-26T16:04:41;9.00;99.90
2300;DHT22;1158;48.750;9.078;2022-12-26T16:07:20;8.90;99.90
2300;DHT22;1158;48.750;9.078;2022-12-26T16:09:50;8.90;99.90
2300;DHT22;1158;48.750;9.078;2022-12-26T16:12:24;8.90;99.90
2300;DHT22;1158;48.750;9.078;2022-12-26T16:15:03;8.90;99.90
2300;DHT22;1158;48.750;9.078;2022-12-26T16:17:40;8.90;99.90
2300;DHT22;1158;48.750;9.078;2022-12-26T16:20:17;8.90;99.90
2300;DHT22;1158;48.750;9.078;2022-12-26T16:23:04;8.80;99.90
2300;DHT22;1158;48.750;9.078;2022-12-26T16:25:30;8.80;99.90
2300;DHT22;1158;48.750;9.078;2022-12-26T16:27:59;8.80;99.90
2300;DHT22;1158;48.750;9.078;2022-12-26T16:30:35;8.80;99.90
2300;DHT22;1158;48.750;9.078;2022-12-26T16:33:02;8.80;99.90
2300;DHT22;1158;48.750;9.078;2022-12-26T16:35:33;8.80;99.90
2300;DHT22;1158;48.750;9.078;2022-12-26T16:38:02;8.70;99.90
2300;DHT22;1158;48.750;9.078;2022-12-26T16:40:32;8.70;99.90
2300;DHT22;1158;48.750;9.078;2022-12-26T16:43:02;8.70;99.90
2300;DHT22;1158;48.750;9.078;2022-12-26T16:45:33;8.70;99.90
2300;DHT22;1158;48.750;9.078;2022-12-26T16:48:04;8.70;99.90
2300;DHT22;1158;48.750;9.078;2022-12-26T16:50:33;8.60;99.90
2300;DHT22;1158;48.750;9.078;2022-12-26T16:53:09;8.60;99.90
2300;DHT22;1158;48.750;9.078;2022-12-26T16:55:39;8.50;99.90
2300;DHT22;1158;48.750;9.078;2022-12-26T16:58:22;8.50;99.90
2300;DHT22;1158;48.750;9.078;2022-12-26T17:01:03;8.50;99.90
2300;DHT22;1158;48.750;9.078;2022-12-26T17:03:37;8.50;99.90
2300;DHT22;1158;48.750;9.078;2022-12-26T17:06:12;8.50;99.90
2300;DHT22;1158;48.750;9.078;2022-12-26T17:08:42;8.50;99.90
2300;DHT22;1158;48.750;9.078;2022-12-26T17:11:10;8.50;99.90
2300;DHT22;1158;48.750;9.078;2022-12-26T17:13:37;8.50;99.90
2300;DHT22;1158;48.750;9.078;2022-12-26T17:16:06;8.40;99.90
2300;DHT22;1158;48.750;9.078;2022-12-26T17:18:46;8.40;99.90
2300;DHT22;1158;48.750;9.078;2022-12-26T17:21:17;8.40;99.90
2300;DHT22;1158;48.750;9.078;2022-12-26T17:23:45;8.40;99.90
2300;DHT22;1158;48.750;9.078;2022-12-26T17:26:26;8.40;99.90
2300;DHT22;1158;48.750;9.078;2022-12-26T17:28:53;8.40;99.90
2300;DHT22;1158;48.750;9.078;2022-12-26T17:31:29;8.40;99.90